Pagrindinis puslapis
METAR-TAF:

METAR-TAF

Oro uostai :

Guymon, Oklahoma, Jungtinės Amerikos Valstijos

platuma: 36-40-54N, ilguma: 101-30-19W, Aukštis: 952 m

Dabartinis oras

Ataskaita buvo paskelbta 55 minutes, ne 11:53 UTC
Vėjas 9 kt iš Pietų/Pietvakarių
Temperatūra 12°C
Drėgmė 58%
Slėgis 1019 hPa
Matomumas: 16.1 km
Giedras dangus

METAR: KGUY 231153Z AUTO 20009KT 10SM CLR 12/04 A3008 RMK AO2 SLP152 T01170039 10167 20117 55005

Laikas: 07:48 (12:48 UTC)

Prognozė

Ataskaita buvo paskelbta 1 valandą ir 28 minutes, ne 11:20 UTC
Prognozė galioja nuo 23 metu 12 UTC su 24 metu 12 UTC
Vėjas 11 kt iš Pietų
Matomumas: 10 km
Giedras dangus

TAF: KGUY 231120Z 2312/2412 18011KT P6SM SKC

Orai ataskaitas ir orų prognozės (METAR, TAF).

turimą stotys yra geltonos ir raudonos taškus žemėlapyje.

Perkelti pele per norėdami pamatyti stoties vardą.

Tada spustelėkite, norėdami matyti oro stebėjimo ir prognozės.

Norėdami pakeisti žemėlapį: spustelėkite ant žalios mygtukų su juodo kryžiaus žemyn,; žalią mygtuką su brūkšneliu, jei norite nutolinti; arba žalių rodyklių gretimoms žemėlapius.


METAR-TAF: